createdAt,value
2019-01-30T00:00:36.732Z,-3.30
2019-01-30T00:03:06.017Z,-3.30
2019-01-30T00:05:34.458Z,-3.20
2019-01-30T00:08:02.889Z,-3.20
2019-01-30T00:10:31.324Z,-3.20
2019-01-30T00:12:59.771Z,-3.20
2019-01-30T00:15:28.198Z,-3.30
2019-01-30T00:17:56.625Z,-3.30
2019-01-30T00:20:25.064Z,-3.30
2019-01-30T00:22:53.493Z,-3.30
2019-01-30T00:25:23.984Z,-3.20
2019-01-30T00:27:52.076Z,-3.30
2019-01-30T00:30:23.589Z,-3.20
2019-01-30T00:32:52.406Z,-3.20
2019-01-30T00:35:20.830Z,-3.20
2019-01-30T00:37:49.268Z,-3.10
2019-01-30T00:40:20.207Z,-3.10
2019-01-30T00:42:48.639Z,-3.20
2019-01-30T00:45:19.270Z,-3.10
2019-01-30T00:47:47.709Z,-3.20
2019-01-30T00:50:23.875Z,-3.20
2019-01-30T00:52:52.758Z,-3.20
2019-01-30T00:55:21.421Z,-3.20
2019-01-30T00:57:49.875Z,-3.20
2019-01-30T01:00:23.533Z,-3.20
2019-01-30T01:02:52.039Z,-3.20
2019-01-30T01:05:20.562Z,-3.20
2019-01-30T01:07:49.056Z,-3.30
2019-01-30T01:10:19.039Z,-3.30
2019-01-30T01:12:47.546Z,-3.30
2019-01-30T01:15:16.740Z,-3.40
2019-01-30T01:17:45.710Z,-3.40
2019-01-30T01:20:21.704Z,-3.40
2019-01-30T01:22:50.196Z,-3.50
2019-01-30T01:25:18.905Z,-3.50
2019-01-30T01:27:47.681Z,-3.50
2019-01-30T01:30:25.176Z,-3.60
2019-01-30T01:32:51.901Z,-3.60
2019-01-30T01:35:20.408Z,-3.60
2019-01-30T01:37:48.938Z,-3.70
2019-01-30T01:40:17.425Z,-3.70
2019-01-30T01:42:45.869Z,-3.70
2019-01-30T01:45:22.395Z,-3.70
2019-01-30T01:47:50.821Z,-3.70
2019-01-30T01:50:20.799Z,-3.80
2019-01-30T01:52:49.366Z,-3.70
2019-01-30T01:55:17.799Z,-3.70
2019-01-30T01:57:46.228Z,-3.70
2019-01-30T02:00:24.053Z,-3.70
2019-01-30T02:02:52.502Z,-3.70
2019-01-30T02:05:24.315Z,-3.70
2019-01-30T02:07:52.925Z,-3.70
2019-01-30T02:10:23.403Z,-3.70
2019-01-30T02:12:51.826Z,-3.70
2019-01-30T02:15:21.908Z,-3.70
2019-01-30T02:17:50.769Z,-3.80
2019-01-30T02:20:21.642Z,-3.80
2019-01-30T02:22:50.104Z,-3.80
2019-01-30T02:25:18.568Z,-3.80
2019-01-30T02:27:47.006Z,-3.80
2019-01-30T02:30:20.221Z,-3.90
2019-01-30T02:32:48.638Z,-3.80
2019-01-30T02:35:17.162Z,-3.80
2019-01-30T02:37:45.589Z,-3.80
2019-01-30T02:40:16.454Z,-3.90
2019-01-30T02:42:45.020Z,-3.80
2019-01-30T02:45:16.068Z,-3.80
2019-01-30T02:47:44.499Z,-3.80
2019-01-30T02:50:15.277Z,-3.80
2019-01-30T02:52:43.710Z,-3.80
2019-01-30T02:55:14.279Z,-3.80
2019-01-30T02:57:42.789Z,-3.80
2019-01-30T03:00:25.317Z,-3.80
2019-01-30T03:02:54.040Z,-3.80
2019-01-30T03:05:22.546Z,-3.80
2019-01-30T03:07:50.992Z,-3.90
2019-01-30T03:10:20.669Z,-3.80
2019-01-30T03:12:49.115Z,-3.90
2019-01-30T03:15:20.993Z,-3.90
2019-01-30T03:17:49.431Z,-3.90
2019-01-30T03:20:26.008Z,-3.90
2019-01-30T03:22:54.668Z,-3.90
2019-01-30T03:25:25.149Z,-3.90
2019-01-30T03:27:53.774Z,-4.00
2019-01-30T03:30:24.885Z,-3.90
2019-01-30T03:32:53.342Z,-4.00
2019-01-30T03:35:22.043Z,-4.10
2019-01-30T03:37:50.469Z,-4.20
2019-01-30T03:40:20.454Z,-4.20
2019-01-30T03:42:48.878Z,-4.20
2019-01-30T03:45:19.670Z,-4.20
2019-01-30T03:47:48.175Z,-4.40
2019-01-30T03:50:17.200Z,-4.40
2019-01-30T03:52:45.703Z,-4.40
2019-01-30T03:55:16.437Z,-4.40
2019-01-30T03:57:44.950Z,-4.40
2019-01-30T04:00:16.030Z,-4.40
2019-01-30T04:02:44.477Z,-4.50
2019-01-30T04:05:12.957Z,-4.50
2019-01-30T04:07:41.398Z,-4.50
2019-01-30T04:10:15.628Z,-4.50
2019-01-30T04:12:44.074Z,-4.60
2019-01-30T04:15:12.576Z,-4.60
2019-01-30T04:17:41.099Z,-4.60
2019-01-30T04:20:12.271Z,-4.60
2019-01-30T04:22:40.731Z,-4.70
2019-01-30T04:25:10.986Z,-4.70
2019-01-30T04:27:39.406Z,-4.60
2019-01-30T04:30:10.920Z,-4.60
2019-01-30T04:32:39.358Z,-4.60
2019-01-30T04:35:07.993Z,-4.60
2019-01-30T04:37:36.441Z,-4.60
2019-01-30T04:40:07.972Z,-4.60
2019-01-30T04:42:36.401Z,-4.50
2019-01-30T04:45:07.943Z,-4.50
2019-01-30T04:47:36.361Z,-4.50
2019-01-30T04:50:06.240Z,-4.50
2019-01-30T04:52:34.750Z,-4.50
2019-01-30T04:55:03.566Z,-4.50
2019-01-30T04:57:32.084Z,-4.50
2019-01-30T05:00:00.527Z,-4.50
2019-01-30T05:02:28.957Z,-4.40
2019-01-30T05:04:57.511Z,-4.40
2019-01-30T05:07:25.939Z,-4.40
2019-01-30T05:09:54.368Z,-4.30
2019-01-30T05:12:22.805Z,-4.30
2019-01-30T05:14:51.236Z,-4.30
2019-01-30T05:17:19.671Z,-4.30
2019-01-30T05:19:48.118Z,-4.30
2019-01-30T05:22:16.660Z,-4.20
2019-01-30T05:24:45.058Z,-4.10
2019-01-30T05:27:13.576Z,-4.10
2019-01-30T05:29:42.003Z,-4.20
2019-01-30T05:32:10.526Z,-4.10
2019-01-30T05:34:38.959Z,-4.20
2019-01-30T05:37:07.405Z,-4.20
2019-01-30T05:39:35.831Z,-4.30
2019-01-30T05:42:04.340Z,-4.30
2019-01-30T05:44:32.768Z,-4.40
2019-01-30T05:47:01.226Z,-4.50
2019-01-30T05:49:29.669Z,-4.50
2019-01-30T05:51:58.120Z,-4.50
2019-01-30T05:54:26.568Z,-4.60
2019-01-30T05:56:54.990Z,-4.70
2019-01-30T05:59:23.425Z,-4.70
2019-01-30T06:01:51.857Z,-4.70
2019-01-30T06:04:20.311Z,-4.60
2019-01-30T06:06:48.815Z,-4.70
2019-01-30T06:09:17.545Z,-4.70
2019-01-30T06:11:46.020Z,-4.70
2019-01-30T06:14:14.455Z,-4.80
2019-01-30T06:16:42.898Z,-4.80
2019-01-30T06:19:11.359Z,-4.70
2019-01-30T06:21:39.789Z,-4.70
2019-01-30T06:24:08.230Z,-4.70
2019-01-30T06:26:36.657Z,-4.80
2019-01-30T06:29:05.093Z,-4.80
2019-01-30T06:31:33.550Z,-4.80
2019-01-30T06:34:01.974Z,-4.80
2019-01-30T06:36:30.414Z,-4.80
2019-01-30T06:38:58.842Z,-4.80
2019-01-30T06:41:27.288Z,-4.70
2019-01-30T06:43:55.732Z,-4.70
2019-01-30T06:46:24.183Z,-4.60
2019-01-30T06:48:52.624Z,-4.60
2019-01-30T06:51:21.058Z,-4.60
2019-01-30T06:53:49.542Z,-4.60
2019-01-30T06:56:18.009Z,-4.50
2019-01-30T06:58:46.449Z,-4.60
2019-01-30T07:01:14.886Z,-4.60
2019-01-30T07:03:43.321Z,-4.60
2019-01-30T07:06:11.745Z,-4.60
2019-01-30T07:08:40.200Z,-4.50
2019-01-30T07:11:10.625Z,-4.50
2019-01-30T07:13:38.794Z,-4.50
2019-01-30T07:16:07.221Z,-4.40
2019-01-30T07:18:35.657Z,-4.40
2019-01-30T07:21:04.092Z,-4.40
2019-01-30T07:23:32.535Z,-4.50
2019-01-30T07:26:00.960Z,-4.40
2019-01-30T07:28:29.410Z,-4.40
2019-01-30T07:30:57.854Z,-4.40
2019-01-30T07:33:26.293Z,-4.40
2019-01-30T07:35:54.725Z,-4.30
2019-01-30T07:38:23.187Z,-4.30
2019-01-30T07:40:51.617Z,-4.30
2019-01-30T07:43:20.046Z,-4.20
2019-01-30T07:45:48.477Z,-4.20
2019-01-30T07:48:16.915Z,-4.20
2019-01-30T07:50:45.379Z,-4.10
2019-01-30T07:53:13.812Z,-4.10
2019-01-30T07:55:42.278Z,-4.10
2019-01-30T07:58:10.705Z,-4.10
2019-01-30T08:00:39.153Z,-4.00
2019-01-30T08:03:07.572Z,-4.00
2019-01-30T08:05:36.065Z,-4.00
2019-01-30T08:08:04.875Z,-4.00
2019-01-30T08:10:33.311Z,-3.90
2019-01-30T08:13:01.751Z,-3.90
2019-01-30T08:15:30.188Z,-3.80
2019-01-30T08:17:58.628Z,-3.80
2019-01-30T08:20:27.058Z,-3.80
2019-01-30T08:22:55.831Z,-3.70
2019-01-30T08:25:24.482Z,-3.80
2019-01-30T08:27:53.015Z,-3.70
2019-01-30T08:30:29.524Z,-3.60
2019-01-30T08:33:04.573Z,-3.50
2019-01-30T08:35:30.271Z,-3.50
2019-01-30T08:37:58.715Z,-3.50
2019-01-30T08:40:28.101Z,-3.40
2019-01-30T08:42:56.558Z,-3.40
2019-01-30T08:45:29.270Z,-3.40
2019-01-30T08:47:57.788Z,-3.30
2019-01-30T08:50:26.490Z,-3.20
2019-01-30T08:52:54.963Z,-3.10
2019-01-30T08:55:23.395Z,-3.10
2019-01-30T08:57:51.897Z,-3.20
2019-01-30T09:00:26.211Z,-3.20
2019-01-30T09:02:54.720Z,-3.10
2019-01-30T09:05:23.328Z,-3.10
2019-01-30T09:07:51.758Z,-3.10
2019-01-30T09:10:24.530Z,-3.20
2019-01-30T09:12:53.096Z,-3.20
2019-01-30T09:15:23.266Z,-3.10
2019-01-30T09:17:51.753Z,-3.10
2019-01-30T09:20:24.540Z,-3.10
2019-01-30T09:22:53.037Z,-3.10
2019-01-30T09:25:25.869Z,-3.10
2019-01-30T09:27:54.296Z,-3.20
2019-01-30T09:30:25.089Z,-3.20
2019-01-30T09:32:55.510Z,-3.10
2019-01-30T09:35:23.971Z,-3.00
2019-01-30T09:37:52.562Z,-3.00
2019-01-30T09:40:22.413Z,-3.00
2019-01-30T09:42:50.862Z,-3.00
2019-01-30T09:45:20.518Z,-3.00
2019-01-30T09:47:48.944Z,-2.90
2019-01-30T09:50:22.423Z,-2.80
2019-01-30T09:52:51.405Z,-2.80
2019-01-30T09:55:19.836Z,-2.70
2019-01-30T09:57:48.265Z,-2.60
2019-01-30T10:00:28.079Z,-2.50
2019-01-30T10:02:56.525Z,-2.40
2019-01-30T10:05:25.196Z,-2.40
2019-01-30T10:07:55.313Z,-2.30
2019-01-30T10:10:35.452Z,-2.30
2019-01-30T10:13:04.435Z,-2.20
2019-01-30T10:15:41.144Z,-2.20
2019-01-30T10:18:10.247Z,-2.20
2019-01-30T10:20:40.114Z,-2.10
2019-01-30T10:23:08.638Z,-2.10
2019-01-30T10:25:37.063Z,-2.20
2019-01-30T10:28:15.888Z,-2.10
2019-01-30T10:30:38.438Z,-2.00
2019-01-30T10:33:07.221Z,-2.00
2019-01-30T10:35:35.856Z,-2.00
2019-01-30T10:38:05.035Z,-2.20
2019-01-30T10:40:33.477Z,-2.20
2019-01-30T10:43:01.983Z,-2.10
2019-01-30T10:45:30.406Z,-2.20
2019-01-30T10:47:58.833Z,-2.30
2019-01-30T10:50:29.332Z,-2.30
2019-01-30T10:52:57.836Z,-2.30
2019-01-30T10:55:28.323Z,-2.10
2019-01-30T10:57:58.582Z,-1.70
2019-01-30T11:00:29.576Z,-1.50
2019-01-30T11:02:58.081Z,-1.60
2019-01-30T11:05:26.533Z,-1.50
2019-01-30T11:07:54.963Z,-1.30
2019-01-30T11:10:23.420Z,-1.30
2019-01-30T11:12:51.849Z,-1.40
2019-01-30T11:15:25.641Z,-1.50
2019-01-30T11:17:54.065Z,-1.50
2019-01-30T11:20:22.662Z,-1.60
2019-01-30T11:22:53.423Z,-1.70
2019-01-30T11:25:42.833Z,-1.60
2019-01-30T11:28:11.428Z,-1.70
2019-01-30T11:30:39.878Z,-1.70
2019-01-30T11:33:08.325Z,-1.80
2019-01-30T11:35:36.744Z,-1.80
2019-01-30T11:38:05.432Z,-1.70
2019-01-30T11:40:33.878Z,-1.50
2019-01-30T11:43:02.331Z,-1.40
2019-01-30T11:45:36.133Z,-1.50
2019-01-30T11:48:05.219Z,-1.50
2019-01-30T11:50:33.717Z,-1.40
2019-01-30T11:53:02.167Z,-1.30
2019-01-30T11:55:30.758Z,-1.40
2019-01-30T11:57:59.207Z,-1.30
2019-01-30T12:00:34.616Z,-1.30
2019-01-30T12:03:03.077Z,-1.30
2019-01-30T12:05:31.565Z,-1.30
2019-01-30T12:08:00.497Z,-1.40
2019-01-30T12:10:29.040Z,-1.60
2019-01-30T12:12:57.461Z,-1.70
2019-01-30T12:15:26.929Z,-1.60
2019-01-30T12:17:55.520Z,-1.60
2019-01-30T12:20:24.049Z,-1.70
2019-01-30T12:22:52.560Z,-1.60
2019-01-30T12:25:22.257Z,-1.60
2019-01-30T12:27:51.207Z,-1.70
2019-01-30T12:30:30.344Z,-1.60
2019-01-30T12:32:58.772Z,-1.50
2019-01-30T12:35:27.587Z,-1.60
2019-01-30T12:37:56.021Z,-1.60
2019-01-30T12:40:25.108Z,-1.60
2019-01-30T12:42:53.873Z,-1.50
2019-01-30T12:45:31.298Z,-1.50
2019-01-30T12:48:00.104Z,-1.60
2019-01-30T12:50:29.192Z,-1.60
2019-01-30T12:52:57.620Z,-1.60
2019-01-30T12:58:43.353Z,-1.70
2019-01-30T13:01:11.884Z,-1.70
2019-01-30T13:03:40.311Z,-1.80
2019-01-30T13:06:08.737Z,-1.80
2019-01-30T13:08:37.181Z,-1.70
2019-01-30T13:11:05.748Z,-1.60
2019-01-30T13:13:34.201Z,-1.60
2019-01-30T13:16:02.642Z,-1.60
2019-01-30T13:18:31.064Z,-1.60
2019-01-30T13:20:59.509Z,-1.60
2019-01-30T13:23:28.015Z,-1.50
2019-01-30T13:25:56.457Z,-1.60
2019-01-30T13:28:24.897Z,-1.60
2019-01-30T13:30:53.341Z,-1.60
2019-01-30T13:33:21.781Z,-1.60
2019-01-30T13:35:50.240Z,-1.70
2019-01-30T13:38:18.685Z,-1.70
2019-01-30T13:40:47.126Z,-1.80
2019-01-30T13:43:15.561Z,-1.70
2019-01-30T13:45:44.111Z,-1.70
2019-01-30T13:48:12.974Z,-1.70
2019-01-30T13:50:41.591Z,-1.70
2019-01-30T13:53:10.181Z,-1.70
2019-01-30T13:55:38.961Z,-1.60
2019-01-30T13:58:07.432Z,-1.60
2019-01-30T14:00:37.506Z,-1.60
2019-01-30T14:03:06.477Z,-1.70
2019-01-30T14:05:35.050Z,-1.70
2019-01-30T14:08:04.517Z,-1.70
2019-01-30T14:10:33.866Z,-1.70
2019-01-30T14:13:02.442Z,-1.80
2019-01-30T14:15:31.600Z,-1.80
2019-01-30T14:18:00.147Z,-1.70
2019-01-30T14:20:28.671Z,-1.70
2019-01-30T14:22:57.207Z,-1.70
2019-01-30T14:25:25.749Z,-1.70
2019-01-30T14:27:54.222Z,-1.80
2019-01-30T14:30:28.333Z,-1.80
2019-01-30T14:32:56.942Z,-1.70
2019-01-30T14:35:26.662Z,-1.70
2019-01-30T14:37:55.250Z,-1.80
2019-01-30T14:40:23.796Z,-1.70
2019-01-30T14:42:52.295Z,-1.70
2019-01-30T14:45:21.216Z,-1.70
2019-01-30T14:47:51.475Z,-1.70
2019-01-30T14:50:25.125Z,-1.70
2019-01-30T14:52:53.583Z,-1.80
2019-01-30T14:55:22.420Z,-1.70
2019-01-30T14:57:52.095Z,-1.60
2019-01-30T15:00:28.603Z,-1.70
2019-01-30T15:02:57.241Z,-1.70
2019-01-30T15:05:25.843Z,-1.80
2019-01-30T15:07:54.317Z,-1.80
2019-01-30T15:13:51.273Z,-1.80
2019-01-30T15:16:19.734Z,-1.80
2019-01-30T15:18:48.227Z,-1.70
2019-01-30T15:21:16.650Z,-1.70
2019-01-30T15:23:45.168Z,-1.70
2019-01-30T15:26:13.611Z,-1.70
2019-01-30T15:28:42.037Z,-1.80
2019-01-30T15:31:10.482Z,-1.70
2019-01-30T15:33:38.922Z,-1.70
2019-01-30T15:36:07.362Z,-1.80
2019-01-30T15:38:35.866Z,-1.80
2019-01-30T15:41:04.305Z,-1.80
2019-01-30T15:43:35.330Z,-1.80
2019-01-30T15:46:02.896Z,-1.90
2019-01-30T15:48:31.333Z,-1.90
2019-01-30T15:50:59.773Z,-1.80
2019-01-30T15:53:28.272Z,-1.80
2019-01-30T15:55:56.733Z,-1.90
2019-01-30T15:58:25.366Z,-1.90
2019-01-30T16:01:03.022Z,-1.90
2019-01-30T16:03:31.468Z,-1.90
2019-01-30T16:05:59.908Z,-1.90
2019-01-30T16:08:28.412Z,-1.90
2019-01-30T16:10:56.872Z,-1.90
2019-01-30T16:13:25.395Z,-1.80
2019-01-30T16:15:59.601Z,-1.90
2019-01-30T16:18:28.141Z,-1.90
2019-01-30T16:20:56.648Z,-1.80
2019-01-30T16:23:25.081Z,-1.80
2019-01-30T16:25:54.550Z,-1.80
2019-01-30T16:28:23.008Z,-1.80
2019-01-30T16:30:51.565Z,-1.90
2019-01-30T16:33:34.906Z,-1.80
2019-01-30T16:36:03.430Z,-1.80
2019-01-30T16:38:32.783Z,-1.80
2019-01-30T16:41:01.290Z,-1.80
2019-01-30T16:43:29.771Z,-1.80
2019-01-30T16:45:58.223Z,-1.80
2019-01-30T16:48:26.646Z,-1.80
2019-01-30T16:50:55.101Z,-1.80
2019-01-30T16:53:23.532Z,-1.80
2019-01-30T16:55:52.058Z,-1.80
2019-01-30T16:58:20.541Z,-1.80
2019-01-30T17:00:49.045Z,-1.80
2019-01-30T17:03:17.471Z,-1.80
2019-01-30T17:05:46.170Z,-1.80
2019-01-30T17:08:14.617Z,-1.70
2019-01-30T17:10:43.801Z,-1.70
2019-01-30T17:13:12.815Z,-1.70
2019-01-30T17:15:41.730Z,-1.70
2019-01-30T17:18:12.423Z,-1.70
2019-01-30T17:20:41.593Z,-1.80
2019-01-30T17:23:10.037Z,-1.80
2019-01-30T17:25:38.546Z,-1.80
2019-01-30T17:28:07.217Z,-1.80
2019-01-30T17:30:44.622Z,-1.70
2019-01-30T17:33:13.076Z,-1.70
2019-01-30T17:35:42.060Z,-1.70
2019-01-30T17:38:10.666Z,-1.70
2019-01-30T17:40:39.449Z,-1.80
2019-01-30T17:43:07.910Z,-1.80
2019-01-30T17:45:36.358Z,-1.80
2019-01-30T17:48:06.408Z,-1.90
2019-01-30T17:50:34.853Z,-1.90
2019-01-30T17:53:04.351Z,-1.90
2019-01-30T17:55:32.843Z,-1.90
2019-01-30T17:58:01.348Z,-1.90
2019-01-30T18:00:46.715Z,-1.80
2019-01-30T18:03:15.388Z,-1.90
2019-01-30T18:05:43.819Z,-1.80
2019-01-30T18:08:12.250Z,-1.80
2019-01-30T18:10:40.704Z,-1.90
2019-01-30T18:13:09.147Z,-1.90
2019-01-30T18:15:37.762Z,-1.80
2019-01-30T18:18:06.373Z,-1.80
2019-01-30T18:20:34.823Z,-1.90
2019-01-30T18:23:03.252Z,-1.90
2019-01-30T18:25:31.711Z,-1.90
2019-01-30T18:28:00.309Z,-2.00
2019-01-30T18:30:28.827Z,-2.00
2019-01-30T18:32:57.289Z,-1.90
2019-01-30T18:35:25.821Z,-2.00
2019-01-30T18:37:54.318Z,-2.00
2019-01-30T18:40:27.473Z,-2.00
2019-01-30T18:42:56.034Z,-2.00
2019-01-30T18:45:26.739Z,-2.00
2019-01-30T18:47:55.788Z,-2.10
2019-01-30T18:50:28.709Z,-2.10
2019-01-30T18:52:57.185Z,-2.10
2019-01-30T18:55:25.642Z,-2.10
2019-01-30T18:57:54.463Z,-2.10
2019-01-30T19:00:27.777Z,-2.20
2019-01-30T19:02:57.914Z,-2.20
2019-01-30T19:05:26.684Z,-2.30
2019-01-30T19:07:55.246Z,-2.30
2019-01-30T19:10:23.674Z,-2.30
2019-01-30T19:12:52.189Z,-2.30
2019-01-30T19:15:27.509Z,-2.30
2019-01-30T19:17:56.010Z,-2.30
2019-01-30T19:20:26.785Z,-2.30
2019-01-30T19:22:55.225Z,-2.30
2019-01-30T19:25:23.649Z,-2.40
2019-01-30T19:27:52.107Z,-2.40
2019-01-30T19:30:28.282Z,-2.40
2019-01-30T19:32:56.819Z,-2.40
2019-01-30T19:35:25.242Z,-2.50
2019-01-30T19:37:53.818Z,-2.50
2019-01-30T19:40:23.030Z,-2.60
2019-01-30T19:42:51.720Z,-2.60
2019-01-30T19:45:27.718Z,-2.60
2019-01-30T19:47:56.425Z,-2.60
2019-01-30T19:50:27.258Z,-2.70
2019-01-30T19:52:56.309Z,-2.70
2019-01-30T19:55:25.085Z,-2.70
2019-01-30T19:57:54.164Z,-2.70
2019-01-30T20:00:24.930Z,-2.70
2019-01-30T20:02:53.571Z,-2.70
2019-01-30T20:05:21.999Z,-2.80
2019-01-30T20:07:50.492Z,-2.80
2019-01-30T20:10:21.716Z,-2.80
2019-01-30T20:12:50.226Z,-2.80
2019-01-30T20:15:18.788Z,-2.80
2019-01-30T20:17:47.295Z,-2.80
2019-01-30T20:20:20.595Z,-2.80
2019-01-30T20:22:48.016Z,-2.90
2019-01-30T20:25:19.263Z,-2.90
2019-01-30T20:27:47.748Z,-2.90
2019-01-30T20:30:18.551Z,-2.90
2019-01-30T20:32:47.052Z,-2.90
2019-01-30T20:35:16.091Z,-2.90
2019-01-30T20:37:44.528Z,-2.90
2019-01-30T20:40:15.188Z,-2.90
2019-01-30T20:42:43.798Z,-2.90
2019-01-30T20:45:13.975Z,-2.90
2019-01-30T20:47:42.435Z,-3.00
2019-01-30T20:50:19.070Z,-2.90
2019-01-30T20:52:47.515Z,-2.90
2019-01-30T20:55:17.285Z,-2.90
2019-01-30T20:57:45.889Z,-2.90
2019-01-30T21:00:17.497Z,-2.90
2019-01-30T21:02:45.949Z,-2.90
2019-01-30T21:05:14.517Z,-2.90
2019-01-30T21:07:43.016Z,-2.90
2019-01-30T21:10:17.369Z,-2.90
2019-01-30T21:12:46.019Z,-2.90
2019-01-30T21:15:16.300Z,-2.90
2019-01-30T21:17:44.963Z,-2.90
2019-01-30T21:20:15.754Z,-2.90
2019-01-30T21:22:44.452Z,-2.90
2019-01-30T21:25:20.171Z,-2.80
2019-01-30T21:27:49.138Z,-2.80
2019-01-30T21:30:26.290Z,-2.80
2019-01-30T21:32:54.789Z,-2.80
2019-01-30T21:35:23.228Z,-2.80
2019-01-30T21:37:51.670Z,-2.80
2019-01-30T21:40:20.836Z,-2.80
2019-01-30T21:42:49.422Z,-2.90
2019-01-30T21:45:20.407Z,-2.90
2019-01-30T21:47:48.842Z,-2.90
2019-01-30T21:50:17.498Z,-3.00
2019-01-30T21:52:45.975Z,-2.90
2019-01-30T21:55:19.286Z,-3.00
2019-01-30T21:57:47.813Z,-3.00
2019-01-30T22:00:24.567Z,-3.00
2019-01-30T22:02:53.144Z,-3.00
2019-01-30T22:05:21.693Z,-3.20
2019-01-30T22:08:00.697Z,-3.20
2019-01-30T22:10:22.987Z,-3.20
2019-01-30T22:12:51.407Z,-3.10
2019-01-30T22:15:19.851Z,-3.10
2019-01-30T22:17:48.279Z,-3.10
2019-01-30T22:20:18.778Z,-3.00
2019-01-30T22:22:47.340Z,-3.00
2019-01-30T22:25:20.428Z,-2.90
2019-01-30T22:27:48.054Z,-2.90
2019-01-30T22:30:22.152Z,-2.80
2019-01-30T22:32:50.887Z,-2.70
2019-01-30T22:35:19.326Z,-2.70
2019-01-30T22:37:47.756Z,-2.60
2019-01-30T22:40:16.298Z,-2.60
2019-01-30T22:42:44.898Z,-2.60
2019-01-30T22:45:19.225Z,-2.50
2019-01-30T22:47:47.712Z,-2.50
2019-01-30T22:50:17.486Z,-2.50
2019-01-30T22:52:46.169Z,-2.50
2019-01-30T22:55:17.152Z,-2.50
2019-01-30T22:57:45.666Z,-2.40
2019-01-30T23:00:20.226Z,-2.50
2019-01-30T23:02:48.661Z,-2.40
2019-01-30T23:05:22.866Z,-2.40
2019-01-30T23:07:54.337Z,-2.30
2019-01-30T23:10:37.697Z,-2.30
2019-01-30T23:13:11.833Z,-2.30
2019-01-30T23:15:46.090Z,-2.30
2019-01-30T23:18:20.284Z,-2.30
2019-01-30T23:20:51.872Z,-2.30
2019-01-30T23:23:32.032Z,-2.30
2019-01-30T23:26:03.650Z,-2.20
2019-01-30T23:28:43.853Z,-2.20
2019-01-30T23:31:30.219Z,-2.20
2019-01-30T23:34:19.463Z,-2.20
2019-01-30T23:36:56.899Z,-2.20
2019-01-30T23:39:37.221Z,-2.20
2019-01-30T23:42:17.421Z,-2.20
2019-01-30T23:45:20.429Z,-2.20
2019-01-30T23:48:06.594Z,-2.30
2019-01-30T23:50:41.001Z,-2.20
2019-01-30T23:53:12.578Z,-2.20
2019-01-30T23:55:53.311Z,-2.20
2019-01-30T23:58:47.327Z,-2.10
